createdAt,value
2022-12-17T00:00:01.780Z,99.99
2022-12-17T00:01:01.684Z,99.99
2022-12-17T00:02:01.618Z,99.99
2022-12-17T00:03:01.697Z,99.99
2022-12-17T00:04:01.775Z,99.99
2022-12-17T00:05:01.495Z,99.99
2022-12-17T00:06:01.396Z,99.99
2022-12-17T00:07:01.353Z,99.99
2022-12-17T00:08:01.250Z,99.99
2022-12-17T00:09:01.239Z,99.99
2022-12-17T00:10:01.168Z,99.99
2022-12-17T00:11:01.159Z,99.99
2022-12-17T00:12:00.984Z,99.99
2022-12-17T00:13:00.884Z,99.99
2022-12-17T00:14:00.937Z,99.99
2022-12-17T00:15:00.778Z,99.99
2022-12-17T00:16:00.916Z,99.99
2022-12-17T00:17:00.678Z,99.99
2022-12-17T00:18:01.300Z,99.99
2022-12-17T00:19:00.599Z,99.99
2022-12-17T00:20:00.849Z,99.99
2022-12-17T00:21:00.387Z,99.99
2022-12-17T00:22:00.392Z,99.99
2022-12-17T00:23:00.283Z,99.99
2022-12-17T00:24:00.435Z,99.99
2022-12-17T00:25:00.958Z,99.99
2022-12-17T00:26:00.228Z,99.99
2022-12-17T00:27:00.558Z,99.99
2022-12-17T00:28:00.116Z,99.99
2022-12-17T00:28:59.917Z,99.99
2022-12-17T00:29:59.929Z,99.99
2022-12-17T00:30:59.899Z,99.99
2022-12-17T00:31:59.710Z,99.99
2022-12-17T00:32:59.775Z,99.99
2022-12-17T00:33:59.921Z,99.99
2022-12-17T00:34:59.553Z,99.99
2022-12-17T00:35:59.569Z,99.99
2022-12-17T00:36:59.392Z,99.99
2022-12-17T00:37:59.300Z,99.99
2022-12-17T00:38:59.351Z,99.99
2022-12-17T00:39:59.582Z,99.99
2022-12-17T00:40:59.223Z,99.99
2022-12-17T00:41:59.183Z,99.99
2022-12-17T00:42:58.999Z,99.99
2022-12-17T00:43:59.042Z,99.99
2022-12-17T00:44:58.952Z,99.99
2022-12-17T00:45:58.849Z,99.99
2022-12-17T00:46:58.990Z,99.99
2022-12-17T00:47:58.758Z,99.99
2022-12-17T00:48:58.969Z,99.99
2022-12-17T00:49:58.540Z,99.99
2022-12-17T00:50:58.533Z,99.99
2022-12-17T00:51:58.605Z,99.99
2022-12-17T00:52:58.454Z,99.99
2022-12-17T00:53:58.491Z,99.99
2022-12-17T00:54:58.274Z,99.99
2022-12-17T00:55:58.376Z,99.99
2022-12-17T00:56:58.223Z,99.99
2022-12-17T00:57:58.193Z,99.99
2022-12-17T00:58:58.306Z,99.99
2022-12-17T00:59:58.040Z,99.99
2022-12-17T01:00:58.105Z,99.99
2022-12-17T01:01:58.089Z,99.99
2022-12-17T01:02:58.000Z,99.99
2022-12-17T01:03:57.804Z,99.99
2022-12-17T01:04:57.675Z,99.99
2022-12-17T01:05:57.537Z,99.99
2022-12-17T01:06:57.605Z,99.99
2022-12-17T01:07:57.548Z,99.99
2022-12-17T01:08:57.475Z,99.99
2022-12-17T01:09:57.431Z,99.99
2022-12-17T01:10:57.291Z,99.99
2022-12-17T01:11:57.482Z,99.99
2022-12-17T01:12:57.263Z,99.99
2022-12-17T01:13:57.186Z,99.99
2022-12-17T01:14:57.029Z,99.99
2022-12-17T01:15:56.966Z,99.99
2022-12-17T01:16:56.968Z,99.99
2022-12-17T01:17:57.015Z,99.99
2022-12-17T01:18:56.729Z,99.99
2022-12-17T01:19:57.595Z,99.99
2022-12-17T01:20:56.688Z,99.99
2022-12-17T01:21:57.474Z,99.99
2022-12-17T01:22:56.605Z,99.99
2022-12-17T01:23:56.385Z,99.99
2022-12-17T01:24:56.313Z,99.99
2022-12-17T01:25:56.478Z,99.99
2022-12-17T01:26:56.334Z,99.99
2022-12-17T01:27:56.272Z,99.99
2022-12-17T01:28:56.134Z,99.99
2022-12-17T01:29:56.012Z,99.99
2022-12-17T01:30:55.961Z,99.99
2022-12-17T01:31:55.975Z,99.99
2022-12-17T01:32:55.883Z,99.99
2022-12-17T01:33:55.853Z,99.99
2022-12-17T01:34:55.717Z,99.99
2022-12-17T01:35:55.672Z,99.99
2022-12-17T01:36:55.556Z,99.99
2022-12-17T01:37:55.547Z,99.99
2022-12-17T01:38:55.509Z,99.99
2022-12-17T01:39:55.416Z,99.99
2022-12-17T01:40:55.318Z,99.99
2022-12-17T01:41:55.277Z,99.99
2022-12-17T01:42:55.193Z,99.99
2022-12-17T01:43:55.163Z,99.99
2022-12-17T01:44:55.100Z,99.99
2022-12-17T01:45:55.060Z,99.99
2022-12-17T01:46:54.960Z,99.99
2022-12-17T01:47:56.467Z,99.99
2022-12-17T01:48:54.836Z,99.99
2022-12-17T01:49:54.762Z,99.99
2022-12-17T01:50:54.710Z,99.99
2022-12-17T01:51:54.641Z,99.99
2022-12-17T01:52:54.581Z,99.99
2022-12-17T01:53:54.506Z,99.99
2022-12-17T01:54:54.458Z,99.99
2022-12-17T01:55:54.376Z,99.99
2022-12-17T01:56:54.297Z,99.99
2022-12-17T01:57:54.258Z,99.99
2022-12-17T01:58:54.219Z,99.99
2022-12-17T01:59:54.169Z,99.99
2022-12-17T02:00:54.113Z,99.99
2022-12-17T02:01:54.234Z,99.99
2022-12-17T02:02:54.032Z,99.99
2022-12-17T02:03:53.875Z,99.99
2022-12-17T02:04:53.882Z,99.99
2022-12-17T02:05:53.761Z,99.99
2022-12-17T02:06:53.748Z,99.99
2022-12-17T02:07:53.686Z,99.99
2022-12-17T02:08:53.551Z,99.99
2022-12-17T02:09:53.509Z,99.99
2022-12-17T02:10:53.430Z,99.99
2022-12-17T02:11:53.432Z,99.99
2022-12-17T02:12:53.335Z,99.99
2022-12-17T02:13:53.256Z,99.99
2022-12-17T02:14:53.216Z,99.99
2022-12-17T02:15:53.120Z,99.99
2022-12-17T02:16:53.176Z,99.99
2022-12-17T02:17:53.019Z,99.99
2022-12-17T02:18:52.957Z,99.99
2022-12-17T02:19:52.877Z,99.99
2022-12-17T02:20:52.821Z,99.99
2022-12-17T02:21:52.796Z,99.99
2022-12-17T02:22:52.669Z,99.99
2022-12-17T02:23:52.630Z,99.99
2022-12-17T02:24:52.577Z,99.99
2022-12-17T02:25:52.510Z,99.99
2022-12-17T02:26:52.472Z,99.99
2022-12-17T02:27:52.360Z,99.99
2022-12-17T02:28:52.316Z,99.99
2022-12-17T02:29:52.221Z,99.99
2022-12-17T02:30:52.178Z,99.99
2022-12-17T02:31:52.222Z,99.99
2022-12-17T02:32:52.081Z,99.99
2022-12-17T02:33:52.000Z,99.99
2022-12-17T02:34:51.946Z,99.99
2022-12-17T02:35:51.876Z,99.99
2022-12-17T02:36:51.801Z,99.99
2022-12-17T02:37:51.811Z,99.99
2022-12-17T02:38:51.694Z,99.99
2022-12-17T02:39:51.608Z,99.99
2022-12-17T02:40:51.577Z,99.99
2022-12-17T02:41:51.653Z,99.99
2022-12-17T02:42:51.486Z,99.99
2022-12-17T02:43:51.358Z,99.99
2022-12-17T02:44:51.315Z,99.99
2022-12-17T02:45:51.282Z,99.99
2022-12-17T02:46:51.209Z,99.99
2022-12-17T02:47:51.135Z,99.99
2022-12-17T02:48:51.051Z,99.99
2022-12-17T02:49:51.014Z,99.99
2022-12-17T02:50:50.949Z,99.99
2022-12-17T02:51:50.876Z,99.99
2022-12-17T02:52:50.837Z,99.99
2022-12-17T02:53:50.742Z,99.99
2022-12-17T02:54:50.687Z,99.99
2022-12-17T02:55:50.627Z,99.99
2022-12-17T02:56:50.613Z,99.99
2022-12-17T02:57:53.766Z,99.99
2022-12-17T02:58:50.466Z,99.99
2022-12-17T02:59:50.375Z,99.99
2022-12-17T03:00:50.351Z,99.99
2022-12-17T03:01:50.411Z,99.99
2022-12-17T03:02:50.346Z,99.99
2022-12-17T03:03:50.692Z,99.99
2022-12-17T03:04:50.030Z,99.99
2022-12-17T03:05:49.970Z,99.99
2022-12-17T03:06:49.936Z,99.99
2022-12-17T03:07:49.868Z,99.99
2022-12-17T03:08:49.845Z,99.99
2022-12-17T03:09:49.731Z,99.99
2022-12-17T03:10:49.705Z,99.99
2022-12-17T03:11:49.589Z,99.99
2022-12-17T03:12:49.579Z,99.99
2022-12-17T03:13:49.531Z,99.99
2022-12-17T03:14:49.441Z,99.99
2022-12-17T03:15:49.423Z,99.99
2022-12-17T03:16:49.332Z,99.99
2022-12-17T03:17:49.233Z,99.99
2022-12-17T03:18:49.185Z,99.99
2022-12-17T03:19:49.135Z,99.99
2022-12-17T03:20:49.035Z,99.99
2022-12-17T03:21:49.007Z,99.99
2022-12-17T03:22:48.949Z,99.99
2022-12-17T03:23:48.884Z,99.99
2022-12-17T03:24:48.815Z,99.99
2022-12-17T03:25:48.747Z,99.99
2022-12-17T03:26:48.774Z,99.99
2022-12-17T03:27:48.596Z,99.99
2022-12-17T03:28:48.544Z,99.99
2022-12-17T03:29:48.485Z,99.99
2022-12-17T03:30:49.243Z,99.99
2022-12-17T03:31:48.344Z,99.99
2022-12-17T03:32:48.352Z,99.99
2022-12-17T03:33:48.217Z,99.99
2022-12-17T03:34:48.182Z,99.99
2022-12-17T03:35:48.092Z,99.99
2022-12-17T03:36:48.081Z,99.99
2022-12-17T03:37:47.950Z,99.99
2022-12-17T03:38:47.916Z,99.99
2022-12-17T03:39:47.850Z,99.99
2022-12-17T03:40:47.836Z,99.99
2022-12-17T03:41:47.736Z,99.99
2022-12-17T03:42:47.650Z,99.99
2022-12-17T03:43:47.588Z,99.99
2022-12-17T03:44:47.553Z,99.99
2022-12-17T03:45:47.554Z,99.99
2022-12-17T03:46:47.416Z,99.99
2022-12-17T03:47:47.335Z,99.99
2022-12-17T03:48:47.275Z,99.99
2022-12-17T03:49:47.226Z,99.99
2022-12-17T03:50:47.202Z,99.99
2022-12-17T03:51:47.089Z,99.99
2022-12-17T03:52:47.033Z,99.99
2022-12-17T03:53:47.000Z,99.99
2022-12-17T03:54:46.907Z,99.99
2022-12-17T03:55:46.834Z,99.99
2022-12-17T03:56:46.817Z,99.99
2022-12-17T03:57:46.690Z,99.99
2022-12-17T03:58:46.618Z,99.99
2022-12-17T03:59:46.617Z,99.99
2022-12-17T04:00:46.540Z,99.99
2022-12-17T04:01:46.597Z,99.99
2022-12-17T04:02:46.572Z,99.99
2022-12-17T04:03:46.388Z,99.99
2022-12-17T04:04:46.264Z,99.99
2022-12-17T04:05:46.251Z,99.99
2022-12-17T04:06:46.192Z,99.99
2022-12-17T04:07:46.103Z,99.99
2022-12-17T04:08:46.028Z,99.99
2022-12-17T04:09:45.961Z,99.99
2022-12-17T04:10:45.882Z,99.99
2022-12-17T04:11:45.866Z,99.99
2022-12-17T04:12:45.778Z,99.99
2022-12-17T04:13:46.096Z,99.99
2022-12-17T04:14:45.638Z,99.99
2022-12-17T04:15:45.675Z,99.99
2022-12-17T04:16:45.512Z,99.99
2022-12-17T04:17:45.458Z,99.99
2022-12-17T04:18:45.387Z,99.99
2022-12-17T04:19:45.371Z,99.99
2022-12-17T04:20:45.279Z,99.99
2022-12-17T04:21:45.258Z,99.99
2022-12-17T04:22:45.114Z,99.99
2022-12-17T04:23:45.049Z,99.99
2022-12-17T04:24:45.027Z,99.99
2022-12-17T04:25:44.972Z,99.99
2022-12-17T04:26:44.883Z,99.99
2022-12-17T04:27:44.844Z,99.99
2022-12-17T04:28:44.803Z,99.99
2022-12-17T04:29:44.693Z,99.99
2022-12-17T04:30:44.655Z,99.99
2022-12-17T04:31:44.557Z,99.99
2022-12-17T04:32:44.521Z,99.99
2022-12-17T04:33:44.475Z,99.99
2022-12-17T04:34:44.362Z,99.99
2022-12-17T04:35:44.299Z,99.99
2022-12-17T04:36:44.253Z,99.99
2022-12-17T04:37:44.172Z,99.99
2022-12-17T04:38:44.140Z,99.99
2022-12-17T04:39:44.056Z,99.99
2022-12-17T04:40:44.008Z,99.99
2022-12-17T04:41:43.962Z,99.99
2022-12-17T04:42:43.889Z,99.99
2022-12-17T04:43:43.812Z,99.99
2022-12-17T04:44:43.741Z,99.99
2022-12-17T04:45:43.716Z,99.99
2022-12-17T04:46:43.675Z,99.99
2022-12-17T04:47:43.600Z,99.99
2022-12-17T04:48:43.472Z,99.99
2022-12-17T04:49:43.413Z,99.99
2022-12-17T04:50:43.351Z,99.99
2022-12-17T04:51:43.332Z,99.99
2022-12-17T04:52:43.223Z,99.99
2022-12-17T04:53:43.230Z,99.99
2022-12-17T04:54:43.111Z,99.99
2022-12-17T04:55:43.049Z,99.99
2022-12-17T04:56:42.980Z,99.99
2022-12-17T04:57:42.969Z,99.99
2022-12-17T04:58:42.874Z,99.99
2022-12-17T04:59:42.827Z,99.99
2022-12-17T05:00:42.748Z,99.99
2022-12-17T05:01:42.744Z,99.99
2022-12-17T05:02:43.016Z,99.99
2022-12-17T05:03:42.667Z,99.99
2022-12-17T05:04:42.469Z,99.99
2022-12-17T05:05:42.405Z,99.99
2022-12-17T05:06:42.356Z,99.99
2022-12-17T05:07:42.286Z,99.99
2022-12-17T05:08:42.225Z,99.99
2022-12-17T05:09:42.184Z,99.99
2022-12-17T05:10:42.082Z,99.99
2022-12-17T05:11:42.050Z,99.99
2022-12-17T05:12:41.942Z,99.99
2022-12-17T05:13:41.902Z,99.99
2022-12-17T05:14:41.827Z,99.99
2022-12-17T05:15:41.845Z,99.99
2022-12-17T05:16:41.719Z,99.99
2022-12-17T05:17:41.634Z,99.99
2022-12-17T05:18:41.583Z,99.99
2022-12-17T05:19:41.545Z,99.99
2022-12-17T05:20:41.492Z,99.99
2022-12-17T05:21:41.403Z,99.99
2022-12-17T05:22:41.345Z,99.99
2022-12-17T05:23:41.262Z,99.99
2022-12-17T05:24:41.233Z,99.99
2022-12-17T05:25:41.147Z,99.99
2022-12-17T05:26:41.070Z,99.99
2022-12-17T05:27:40.993Z,99.99
2022-12-17T05:28:40.948Z,99.99
2022-12-17T05:29:40.900Z,99.99
2022-12-17T05:30:40.839Z,99.99
2022-12-17T05:31:40.844Z,99.99
2022-12-17T05:32:40.700Z,99.99
2022-12-17T05:33:40.613Z,99.99
2022-12-17T05:34:40.556Z,99.99
2022-12-17T05:35:40.469Z,99.99
2022-12-17T05:36:40.435Z,99.99
2022-12-17T05:37:40.345Z,99.99
2022-12-17T05:38:40.323Z,99.99
2022-12-17T05:39:40.252Z,99.99
2022-12-17T05:40:40.171Z,99.99
2022-12-17T05:41:40.111Z,99.99
2022-12-17T05:42:40.081Z,99.99
2022-12-17T05:43:40.112Z,99.99
2022-12-17T05:44:39.911Z,99.99
2022-12-17T05:45:39.836Z,99.99
2022-12-17T05:46:39.796Z,99.99
2022-12-17T05:47:39.698Z,99.99
2022-12-17T05:48:39.665Z,99.99
2022-12-17T05:49:39.625Z,99.99
2022-12-17T05:50:39.521Z,99.99
2022-12-17T05:51:39.466Z,99.99
2022-12-17T05:52:39.399Z,99.99
2022-12-17T05:53:39.582Z,99.99
2022-12-17T05:54:39.286Z,99.99
2022-12-17T05:55:39.229Z,99.99
2022-12-17T05:56:39.155Z,99.99
2022-12-17T05:57:39.081Z,99.99
2022-12-17T05:58:39.035Z,99.99
2022-12-17T05:59:38.960Z,99.99
2022-12-17T06:00:38.893Z,99.99
2022-12-17T06:01:38.852Z,99.99
2022-12-17T06:02:38.854Z,99.99
2022-12-17T06:03:39.076Z,99.99
2022-12-17T06:04:38.638Z,99.99
2022-12-17T06:05:38.536Z,99.99
2022-12-17T06:06:38.483Z,99.99
2022-12-17T06:07:38.435Z,99.99
2022-12-17T06:08:38.401Z,99.99
2022-12-17T06:09:38.312Z,99.99
2022-12-17T06:10:38.211Z,99.99
2022-12-17T06:11:38.140Z,99.99
2022-12-17T06:12:38.132Z,99.99
2022-12-17T06:13:38.249Z,99.99
2022-12-17T06:14:37.993Z,99.99
2022-12-17T06:15:37.892Z,99.99
2022-12-17T06:16:37.905Z,99.99
2022-12-17T06:17:37.792Z,99.99
2022-12-17T06:18:37.748Z,99.99
2022-12-17T06:19:37.672Z,99.99
2022-12-17T06:20:37.619Z,99.99
2022-12-17T06:21:37.554Z,99.99
2022-12-17T06:22:37.448Z,99.99
2022-12-17T06:23:37.707Z,99.99
2022-12-17T06:24:40.183Z,99.99
2022-12-17T06:25:37.288Z,99.99
2022-12-17T06:26:37.194Z,99.99
2022-12-17T06:27:37.170Z,99.99
2022-12-17T06:28:37.113Z,99.99
2022-12-17T06:29:37.028Z,99.99
2022-12-17T06:30:36.971Z,99.99
2022-12-17T06:31:36.936Z,99.99
2022-12-17T06:32:36.799Z,99.99
2022-12-17T06:33:37.098Z,99.99
2022-12-17T06:34:36.719Z,99.99
2022-12-17T06:35:36.641Z,99.99
2022-12-17T06:36:36.572Z,99.99
2022-12-17T06:37:36.481Z,99.99
2022-12-17T06:38:36.504Z,99.99
2022-12-17T06:39:36.370Z,99.99
2022-12-17T06:40:36.316Z,99.99
2022-12-17T06:41:36.243Z,99.99
2022-12-17T06:42:36.219Z,99.99
2022-12-17T06:43:36.475Z,99.99
2022-12-17T06:44:36.087Z,99.99
2022-12-17T06:45:36.024Z,99.99
2022-12-17T06:46:36.029Z,99.99
2022-12-17T06:47:35.851Z,99.99
2022-12-17T06:48:35.824Z,99.99
2022-12-17T06:49:35.751Z,99.99
2022-12-17T06:50:35.685Z,99.99
2022-12-17T06:51:35.622Z,99.99
2022-12-17T06:52:35.515Z,99.99
2022-12-17T06:53:35.800Z,99.99
2022-12-17T06:54:35.476Z,99.99
2022-12-17T06:55:35.374Z,99.99
2022-12-17T06:56:35.342Z,99.99
2022-12-17T06:57:39.180Z,99.99
2022-12-17T06:58:35.190Z,99.99
2022-12-17T06:59:35.109Z,99.99
2022-12-17T07:00:35.090Z,99.99
2022-12-17T07:01:35.101Z,99.99
2022-12-17T07:02:35.028Z,99.99
2022-12-17T07:03:35.231Z,99.99
2022-12-17T07:04:34.825Z,99.99
2022-12-17T07:05:34.719Z,99.99
2022-12-17T07:06:34.650Z,99.99
2022-12-17T07:07:34.588Z,99.99
2022-12-17T07:08:34.553Z,99.99
2022-12-17T07:09:34.448Z,99.99
2022-12-17T07:10:34.389Z,99.99
2022-12-17T07:11:34.382Z,99.99
2022-12-17T07:12:34.296Z,99.99
2022-12-17T07:13:34.444Z,99.99
2022-12-17T07:14:34.144Z,99.99
2022-12-17T07:15:34.071Z,99.99
2022-12-17T07:16:34.032Z,99.99
2022-12-17T07:17:33.964Z,99.99
2022-12-17T07:18:33.883Z,99.99
2022-12-17T07:19:33.826Z,99.99
2022-12-17T07:20:33.746Z,99.99
2022-12-17T07:21:33.684Z,99.99
2022-12-17T07:22:33.610Z,99.99
2022-12-17T07:23:34.116Z,99.99
2022-12-17T07:24:33.519Z,99.99
2022-12-17T07:25:33.431Z,99.99
2022-12-17T07:26:33.366Z,99.99
2022-12-17T07:27:33.295Z,99.99
2022-12-17T07:28:33.240Z,99.99
2022-12-17T07:29:33.193Z,99.99
2022-12-17T07:30:33.102Z,99.99
2022-12-17T07:31:33.151Z,99.99
2022-12-17T07:32:32.992Z,99.99
2022-12-17T07:33:33.107Z,99.99
2022-12-17T07:34:32.924Z,99.99
2022-12-17T07:35:32.865Z,99.99
2022-12-17T07:36:32.755Z,99.99
2022-12-17T07:37:32.664Z,99.99
2022-12-17T07:38:32.612Z,99.99
2022-12-17T07:39:32.558Z,99.99
2022-12-17T07:40:32.456Z,99.99
2022-12-17T07:41:32.411Z,99.99
2022-12-17T07:42:32.339Z,99.99
2022-12-17T07:43:32.304Z,99.99
2022-12-17T07:44:32.375Z,99.99
2022-12-17T07:45:32.218Z,99.99
2022-12-17T07:46:32.082Z,99.99
2022-12-17T07:47:32.029Z,99.99
2022-12-17T07:48:31.997Z,99.99
2022-12-17T07:49:31.932Z,99.99
2022-12-17T07:50:31.830Z,99.99
2022-12-17T07:51:31.800Z,99.99
2022-12-17T07:52:31.695Z,99.99
2022-12-17T07:53:31.677Z,99.99
2022-12-17T07:54:31.588Z,99.99
2022-12-17T07:55:31.526Z,99.99
2022-12-17T07:56:31.473Z,99.99
2022-12-17T07:57:31.388Z,99.99
2022-12-17T07:58:31.348Z,99.99
2022-12-17T07:59:31.320Z,99.99
2022-12-17T08:00:31.217Z,99.99
2022-12-17T08:01:31.273Z,99.99
2022-12-17T08:02:31.265Z,99.99
2022-12-17T08:03:31.141Z,99.99
2022-12-17T08:04:30.964Z,99.99
2022-12-17T08:05:30.908Z,99.99
2022-12-17T08:06:30.869Z,99.99
2022-12-17T08:07:30.774Z,99.99
2022-12-17T08:08:30.696Z,99.99
2022-12-17T08:09:30.660Z,99.99
2022-12-17T08:10:30.564Z,99.99
2022-12-17T08:11:30.518Z,99.99
2022-12-17T08:12:30.472Z,99.99
2022-12-17T08:13:30.372Z,99.99
2022-12-17T08:14:30.350Z,99.99
2022-12-17T08:15:30.261Z,99.99
2022-12-17T08:16:30.209Z,99.99
2022-12-17T08:17:30.130Z,99.99
2022-12-17T08:18:30.076Z,99.99
2022-12-17T08:19:29.997Z,96.20
2022-12-17T08:20:29.927Z,93.75
2022-12-17T08:21:29.879Z,91.91
2022-12-17T08:22:29.927Z,90.68
2022-12-17T08:23:29.915Z,89.03
2022-12-17T08:24:29.922Z,86.76
2022-12-17T08:25:29.893Z,86.19
2022-12-17T08:26:29.575Z,86.99
2022-12-17T08:27:29.499Z,86.75
2022-12-17T08:29:29.385Z,84.90
2022-12-17T08:30:29.468Z,84.00
2022-12-17T08:31:29.254Z,81.82
2022-12-17T08:32:29.205Z,80.72
2022-12-17T08:33:29.132Z,78.22
2022-12-17T08:34:29.079Z,77.03
2022-12-17T08:35:29.052Z,75.98
2022-12-17T08:36:29.032Z,75.79
2022-12-17T08:37:28.952Z,75.89
2022-12-17T08:38:28.916Z,75.45
2022-12-17T08:39:28.840Z,74.92
2022-12-17T08:40:28.790Z,73.97
2022-12-17T08:41:28.709Z,72.55
2022-12-17T08:42:28.716Z,70.62
2022-12-17T08:43:28.627Z,70.72
2022-12-17T08:44:28.583Z,70.20
2022-12-17T08:45:28.522Z,70.49
2022-12-17T08:46:28.558Z,70.30
2022-12-17T08:47:28.418Z,70.68
2022-12-17T08:48:28.368Z,70.68
2022-12-17T08:49:28.324Z,71.06
2022-12-17T08:50:28.288Z,70.58
2022-12-17T08:51:28.225Z,69.86
2022-12-17T08:52:28.182Z,69.67
2022-12-17T08:53:33.296Z,68.73
2022-12-17T08:54:28.098Z,68.91
2022-12-17T08:55:28.007Z,69.01
2022-12-17T08:56:27.954Z,68.95
2022-12-17T08:57:31.822Z,68.32
2022-12-17T08:58:27.890Z,68.83
2022-12-17T08:59:27.823Z,67.88
2022-12-17T09:00:27.763Z,67.15
2022-12-17T09:01:27.855Z,67.09
2022-12-17T09:02:27.800Z,65.76
2022-12-17T09:03:27.726Z,64.87
2022-12-17T09:04:27.608Z,63.83
2022-12-17T09:05:27.512Z,63.42
2022-12-17T09:06:27.472Z,63.79
2022-12-17T09:07:27.436Z,64.08
2022-12-17T09:08:27.364Z,64.94
2022-12-17T09:09:27.331Z,66.11
2022-12-17T09:10:27.256Z,65.44
2022-12-17T09:11:27.225Z,65.47
2022-12-17T09:12:27.207Z,63.86
2022-12-17T09:13:27.293Z,64.08
2022-12-17T09:14:27.107Z,63.32
2022-12-17T09:15:27.072Z,62.97
2022-12-17T09:16:27.081Z,61.93
2022-12-17T09:17:26.930Z,60.66
2022-12-17T09:18:26.919Z,60.94
2022-12-17T09:19:26.855Z,60.85
2022-12-17T09:20:29.401Z,60.38
2022-12-17T09:21:26.766Z,60.28
2022-12-17T09:22:26.716Z,60.28
2022-12-17T09:23:26.685Z,60.47
2022-12-17T09:24:26.622Z,60.75
2022-12-17T09:25:26.606Z,62.02
2022-12-17T09:26:26.530Z,60.88
2022-12-17T09:27:26.488Z,60.44
2022-12-17T09:28:26.444Z,60.53
2022-12-17T09:29:26.388Z,59.86
2022-12-17T09:30:26.403Z,59.23
2022-12-17T09:31:26.356Z,58.94
2022-12-17T09:32:26.246Z,58.28
2022-12-17T09:33:27.102Z,58.40
2022-12-17T09:34:26.160Z,57.45
2022-12-17T09:35:26.130Z,56.02
2022-12-17T09:36:26.077Z,55.42
2022-12-17T09:37:26.019Z,55.70
2022-12-17T09:38:25.969Z,56.56
2022-12-17T09:39:25.941Z,56.46
2022-12-17T09:40:25.881Z,57.04
2022-12-17T09:41:25.873Z,57.10
2022-12-17T09:42:25.796Z,57.77
2022-12-17T09:43:25.737Z,58.34
2022-12-17T09:44:25.719Z,58.18
2022-12-17T09:45:25.674Z,58.28
2022-12-17T09:46:25.690Z,58.30
2022-12-17T09:47:25.563Z,57.82
2022-12-17T09:48:30.808Z,57.67
2022-12-17T09:49:25.483Z,58.14
2022-12-17T09:50:25.468Z,57.19
2022-12-17T09:51:25.386Z,56.71
2022-12-17T09:52:25.352Z,56.62
2022-12-17T09:53:25.296Z,56.62
2022-12-17T09:54:25.255Z,56.81
2022-12-17T09:55:25.258Z,55.57
2022-12-17T09:56:25.155Z,56.24
2022-12-17T09:57:25.081Z,55.98
2022-12-17T09:58:25.096Z,55.41
2022-12-17T09:59:25.069Z,55.41
2022-12-17T10:00:24.978Z,55.31
2022-12-17T10:01:25.015Z,55.31
2022-12-17T10:02:25.205Z,55.31
2022-12-17T10:03:24.903Z,54.93
2022-12-17T10:04:24.782Z,54.74
2022-12-17T10:05:24.776Z,54.74
2022-12-17T10:06:24.703Z,54.71
2022-12-17T10:07:24.644Z,54.61
2022-12-17T10:08:24.640Z,54.49
2022-12-17T10:09:24.642Z,55.16
2022-12-17T10:10:24.615Z,55.51
2022-12-17T10:11:24.481Z,55.80
2022-12-17T10:12:24.426Z,56.27
2022-12-17T10:13:24.395Z,56.94
2022-12-17T10:14:24.344Z,57.23
2022-12-17T10:15:24.322Z,57.20
2022-12-17T10:16:24.305Z,57.80
2022-12-17T10:17:24.235Z,57.70
2022-12-17T10:18:24.216Z,57.60
2022-12-17T10:19:24.150Z,57.99
2022-12-17T10:20:24.080Z,57.35
2022-12-17T10:21:24.074Z,57.23
2022-12-17T10:22:24.168Z,57.04
2022-12-17T10:23:23.998Z,56.85
2022-12-17T10:24:23.925Z,57.32
2022-12-17T10:25:23.877Z,57.48
2022-12-17T10:26:23.815Z,58.25
2022-12-17T10:27:23.738Z,57.87
2022-12-17T10:28:23.755Z,58.44
2022-12-17T10:29:23.670Z,58.34
2022-12-17T10:30:23.600Z,58.47
2022-12-17T10:31:23.682Z,58.21
2022-12-17T10:32:23.539Z,57.76
2022-12-17T10:33:23.490Z,56.90
2022-12-17T10:34:23.447Z,56.46
2022-12-17T10:35:23.406Z,55.41
2022-12-17T10:36:23.385Z,55.41
2022-12-17T10:37:23.457Z,55.53
2022-12-17T10:38:23.263Z,55.36
2022-12-17T10:39:23.211Z,55.27
2022-12-17T10:40:23.172Z,54.22
2022-12-17T10:41:23.123Z,54.50
2022-12-17T10:42:23.130Z,54.13
2022-12-17T10:43:23.047Z,54.82
2022-12-17T10:44:23.005Z,53.84
2022-12-17T10:45:23.044Z,53.55
2022-12-17T10:46:22.997Z,53.53
2022-12-17T10:47:22.936Z,53.91
2022-12-17T10:48:22.812Z,54.10
2022-12-17T10:49:22.773Z,53.97
2022-12-17T10:50:22.761Z,54.36
2022-12-17T10:51:22.673Z,54.74
2022-12-17T10:52:22.585Z,55.12
2022-12-17T10:53:22.596Z,55.57
2022-12-17T10:54:22.536Z,55.28
2022-12-17T10:55:22.497Z,55.47
2022-12-17T10:56:22.431Z,56.02
2022-12-17T10:57:22.357Z,56.52
2022-12-17T10:58:22.400Z,56.52
2022-12-17T10:59:22.307Z,56.33
2022-12-17T11:00:22.275Z,55.60
2022-12-17T11:01:22.353Z,55.50
2022-12-17T11:02:22.399Z,55.69
2022-12-17T11:03:22.189Z,55.79
2022-12-17T11:04:22.152Z,55.72
2022-12-17T11:05:22.059Z,55.53
2022-12-17T11:06:22.025Z,55.55
2022-12-17T11:07:21.952Z,55.27
2022-12-17T11:08:21.900Z,54.38
2022-12-17T11:09:21.893Z,54.36
2022-12-17T11:10:21.807Z,54.83
2022-12-17T11:11:21.775Z,54.83
2022-12-17T11:12:24.633Z,55.41
2022-12-17T11:13:21.742Z,55.98
2022-12-17T11:14:21.604Z,55.43
2022-12-17T11:15:21.522Z,55.43
2022-12-17T11:16:21.579Z,55.05
2022-12-17T11:17:21.471Z,54.86
2022-12-17T11:18:21.374Z,54.57
2022-12-17T11:19:21.389Z,54.67
2022-12-17T11:20:21.320Z,54.67
2022-12-17T11:21:21.231Z,55.21
2022-12-17T11:22:21.217Z,54.74
2022-12-17T11:23:21.184Z,54.74
2022-12-17T11:24:22.925Z,55.43
2022-12-17T11:25:21.098Z,54.86
2022-12-17T11:26:21.050Z,54.89
2022-12-17T11:27:20.993Z,55.55
2022-12-17T11:28:20.942Z,55.65
2022-12-17T11:29:20.882Z,55.58
2022-12-17T11:30:21.012Z,54.72
2022-12-17T11:31:20.876Z,54.63
2022-12-17T11:32:20.736Z,54.53
2022-12-17T11:33:20.652Z,54.34
2022-12-17T11:34:20.611Z,54.44
2022-12-17T11:35:20.558Z,54.25
2022-12-17T11:36:25.831Z,54.25
2022-12-17T11:37:20.468Z,54.53
2022-12-17T11:38:20.417Z,54.82
2022-12-17T11:39:20.392Z,55.20
2022-12-17T11:40:20.325Z,55.77
2022-12-17T11:41:20.285Z,54.63
2022-12-17T11:42:20.215Z,55.30
2022-12-17T11:43:20.160Z,54.79
2022-12-17T11:44:20.128Z,55.27
2022-12-17T11:45:20.084Z,55.43
2022-12-17T11:46:20.134Z,55.53
2022-12-17T11:47:19.997Z,55.62
2022-12-17T11:48:19.922Z,55.91
2022-12-17T11:49:19.853Z,56.29
2022-12-17T11:50:19.822Z,56.65
2022-12-17T11:51:19.776Z,56.55
2022-12-17T11:52:19.693Z,57.41
2022-12-17T11:53:26.008Z,57.60
2022-12-17T11:54:19.612Z,57.57
2022-12-17T11:55:19.556Z,57.95
2022-12-17T11:56:19.527Z,58.04
2022-12-17T11:57:19.460Z,58.81
2022-12-17T11:58:19.378Z,59.48
2022-12-17T11:59:19.332Z,59.74
2022-12-17T12:00:19.267Z,59.70
2022-12-17T12:01:19.358Z,60.56
2022-12-17T12:02:19.183Z,60.94
2022-12-17T12:03:19.240Z,61.38
2022-12-17T12:04:19.116Z,62.15
2022-12-17T12:05:19.053Z,62.97
2022-12-17T12:06:18.958Z,63.45
2022-12-17T12:07:18.928Z,63.83
2022-12-17T12:08:18.882Z,64.18
2022-12-17T12:09:18.837Z,64.75
2022-12-17T12:10:18.748Z,65.41
2022-12-17T12:11:18.742Z,65.86
2022-12-17T12:12:18.661Z,66.61
2022-12-17T12:13:18.629Z,66.80
2022-12-17T12:14:18.576Z,67.06
2022-12-17T12:15:18.493Z,67.91
2022-12-17T12:16:18.475Z,68.96
2022-12-17T12:17:18.383Z,69.11
2022-12-17T12:18:18.364Z,69.49
2022-12-17T12:19:18.304Z,69.96
2022-12-17T12:20:18.228Z,70.78
2022-12-17T12:21:18.170Z,71.26
2022-12-17T12:22:18.101Z,72.21
2022-12-17T12:23:18.039Z,72.68
2022-12-17T12:24:18.012Z,72.74
2022-12-17T12:25:17.982Z,73.50
2022-12-17T12:26:17.902Z,74.07
2022-12-17T12:27:17.824Z,74.26
2022-12-17T12:28:17.777Z,74.88
2022-12-17T12:29:17.754Z,75.45
2022-12-17T12:30:17.721Z,75.55
2022-12-17T12:31:17.663Z,75.84
2022-12-17T12:32:17.587Z,76.40
2022-12-17T12:33:17.536Z,77.16
2022-12-17T12:34:17.472Z,77.45
2022-12-17T12:35:17.449Z,77.92
2022-12-17T12:36:17.335Z,78.54
2022-12-17T12:37:17.323Z,78.64
2022-12-17T12:38:17.280Z,79.11
2022-12-17T12:39:17.212Z,79.11
2022-12-17T12:40:17.135Z,79.30
2022-12-17T12:41:17.097Z,79.58
2022-12-17T12:42:17.026Z,79.49
2022-12-17T12:43:17.006Z,79.49
2022-12-17T12:44:16.988Z,79.30
2022-12-17T12:45:16.897Z,79.49
2022-12-17T12:46:16.901Z,79.63
2022-12-17T12:47:16.775Z,79.72
2022-12-17T12:48:16.736Z,80.19
2022-12-17T12:49:16.644Z,79.82
2022-12-17T12:50:16.751Z,79.53
2022-12-17T12:51:16.556Z,80.00
2022-12-17T12:52:16.550Z,79.82